createdAt,value
2022-11-04T00:02:14.718Z,8.24
2022-11-04T00:04:42.518Z,8.16
2022-11-04T00:07:30.384Z,8.10
2022-11-04T00:09:58.298Z,8.07
2022-11-04T00:12:26.165Z,8.06
2022-11-04T00:14:54.576Z,8.04
2022-11-04T00:17:23.457Z,8.02
2022-11-04T00:20:16.541Z,8.02
2022-11-04T00:23:07.169Z,8.01
2022-11-04T00:25:53.846Z,8.01
2022-11-04T00:28:40.355Z,7.99
2022-11-04T00:31:28.088Z,8.02
2022-11-04T00:33:58.660Z,8.05
2022-11-04T00:36:27.175Z,8.08
2022-11-04T00:38:55.277Z,8.12
2022-11-04T00:41:26.633Z,8.15
2022-11-04T00:43:58.638Z,8.18
2022-11-04T00:46:29.265Z,8.20
2022-11-04T00:48:57.862Z,8.22
2022-11-04T00:51:26.182Z,8.27
2022-11-04T00:53:54.962Z,8.31
2022-11-04T00:56:23.088Z,8.31
2022-11-04T00:58:50.905Z,8.32
2022-11-04T01:01:20.133Z,8.26
2022-11-04T01:03:51.751Z,8.21
2022-11-04T01:06:22.276Z,8.17
2022-11-04T01:08:56.919Z,8.15
2022-11-04T01:11:25.600Z,8.15
2022-11-04T01:13:53.414Z,8.08
2022-11-04T01:18:59.362Z,8.04
2022-11-04T01:21:27.165Z,8.02
2022-11-04T01:23:55.492Z,8.02
2022-11-04T01:26:27.390Z,8.03
2022-11-04T01:28:56.619Z,8.01
2022-11-04T01:31:28.807Z,8.03
2022-11-04T01:33:58.586Z,8.03
2022-11-04T01:36:28.396Z,8.06
2022-11-04T01:38:57.736Z,8.08
2022-11-04T01:41:30.975Z,8.07
2022-11-04T01:44:01.838Z,8.05
2022-11-04T01:46:38.744Z,8.01
2022-11-04T01:49:43.287Z,8.05
2022-11-04T01:52:21.861Z,8.04
2022-11-04T01:54:55.816Z,8.03
2022-11-04T01:57:33.615Z,8.02
2022-11-04T02:00:06.236Z,8.01
2022-11-04T02:02:54.686Z,8.00
2022-11-04T02:05:23.370Z,8.00
2022-11-04T02:07:58.144Z,8.02
2022-11-04T02:10:29.807Z,8.04
2022-11-04T02:13:02.918Z,8.04
2022-11-04T02:15:44.438Z,8.04
2022-11-04T02:18:54.171Z,8.04
2022-11-04T02:21:54.206Z,8.01
2022-11-04T02:24:46.939Z,7.99
2022-11-04T02:27:43.493Z,7.99
2022-11-04T02:30:16.740Z,7.97
2022-11-04T02:32:56.446Z,7.96
2022-11-04T02:35:42.897Z,7.97
2022-11-04T02:38:51.348Z,7.94
2022-11-04T02:41:47.981Z,7.94
2022-11-04T02:44:37.981Z,7.96
2022-11-04T02:47:19.871Z,7.95
2022-11-04T02:49:57.006Z,7.97
2022-11-04T02:52:55.455Z,7.97
2022-11-04T02:55:31.040Z,7.99
2022-11-04T02:58:03.111Z,7.99
2022-11-04T03:00:32.061Z,8.00
2022-11-04T03:03:07.300Z,8.00
2022-11-04T03:05:39.883Z,7.98
2022-11-04T03:08:20.441Z,7.95
2022-11-04T03:10:56.905Z,7.95
2022-11-04T03:13:35.111Z,7.92
2022-11-04T03:16:14.285Z,7.88
2022-11-04T03:18:57.211Z,7.85
2022-11-04T03:21:31.809Z,7.81
2022-11-04T03:24:01.893Z,7.77
2022-11-04T03:26:50.055Z,7.74
2022-11-04T03:29:32.301Z,7.69
2022-11-04T03:32:17.608Z,7.66
2022-11-04T03:34:45.594Z,7.62
2022-11-04T03:37:13.459Z,7.58
2022-11-04T03:39:41.510Z,7.57
2022-11-04T03:42:21.752Z,7.54
2022-11-04T03:44:53.212Z,7.53
2022-11-04T03:47:24.717Z,7.51
2022-11-04T03:50:06.796Z,7.47
2022-11-04T03:52:36.031Z,7.44
2022-11-04T03:55:06.029Z,7.41
2022-11-04T03:58:17.524Z,7.38
2022-11-04T04:01:09.576Z,7.36
2022-11-04T04:04:00.486Z,7.35
2022-11-04T04:06:36.311Z,7.35
2022-11-04T04:09:21.190Z,7.36
2022-11-04T04:12:01.746Z,7.37
2022-11-04T04:14:40.337Z,7.42
2022-11-04T04:17:16.926Z,7.46
2022-11-04T04:20:07.079Z,7.49
2022-11-04T04:22:41.901Z,7.51
2022-11-04T04:25:31.697Z,7.53
2022-11-04T04:28:02.401Z,7.58
2022-11-04T04:30:31.005Z,7.59
2022-11-04T04:33:06.617Z,7.62
2022-11-04T04:35:54.976Z,7.64
2022-11-04T04:38:48.413Z,7.63
2022-11-04T04:41:48.251Z,7.59
2022-11-04T04:44:39.019Z,7.51
2022-11-04T04:47:09.366Z,7.45
2022-11-04T04:49:37.246Z,7.41
2022-11-04T04:52:08.047Z,7.31
2022-11-04T04:54:35.930Z,7.26
2022-11-04T04:57:03.818Z,7.23
2022-11-04T04:59:31.531Z,7.20
2022-11-04T05:01:59.391Z,7.16
2022-11-04T05:04:27.713Z,7.15
2022-11-04T05:06:55.583Z,7.15
2022-11-04T05:09:23.386Z,7.14
2022-11-04T05:11:51.356Z,7.13
2022-11-04T05:14:19.574Z,7.09
2022-11-04T05:16:47.312Z,7.07
2022-11-04T05:19:15.148Z,7.04
2022-11-04T05:21:42.977Z,7.02
2022-11-04T05:24:11.385Z,7.01
2022-11-04T05:26:39.501Z,6.97
2022-11-04T05:29:07.291Z,6.95
2022-11-04T05:31:35.166Z,6.94
2022-11-04T05:34:02.908Z,6.93
2022-11-04T05:36:30.806Z,6.90
2022-11-04T05:38:58.910Z,6.88
2022-11-04T05:41:27.207Z,6.85
2022-11-04T05:43:58.144Z,6.83
2022-11-04T05:46:27.673Z,6.82
2022-11-04T05:48:55.856Z,6.79
2022-11-04T05:51:27.946Z,6.77
2022-11-04T05:53:55.957Z,6.75
2022-11-04T05:56:23.732Z,6.74
2022-11-04T05:58:51.713Z,6.73
2022-11-04T06:01:36.274Z,6.71
2022-11-04T06:04:06.305Z,6.69
2022-11-04T06:06:36.450Z,6.68
2022-11-04T06:09:04.170Z,6.66
2022-11-04T06:11:33.950Z,6.64
2022-11-04T06:14:02.173Z,6.61
2022-11-04T06:16:30.136Z,6.61
2022-11-04T06:19:01.584Z,6.61
2022-11-04T06:21:34.135Z,6.59
2022-11-04T06:24:02.296Z,6.55
2022-11-04T06:26:31.304Z,6.53
2022-11-04T06:28:59.395Z,6.49
2022-11-04T06:31:27.371Z,6.47
2022-11-04T06:33:55.799Z,6.43
2022-11-04T06:36:23.601Z,6.40
2022-11-04T06:38:52.453Z,6.36
2022-11-04T06:41:20.321Z,6.33
2022-11-04T06:43:48.042Z,6.30
2022-11-04T06:46:27.830Z,6.28
2022-11-04T06:48:57.174Z,6.27
2022-11-04T06:51:27.535Z,6.29
2022-11-04T06:53:55.687Z,6.28
2022-11-04T06:56:24.186Z,6.25
2022-11-04T06:58:54.472Z,6.23
2022-11-04T07:01:27.209Z,6.19
2022-11-04T07:03:58.591Z,6.14
2022-11-04T07:06:29.247Z,6.10
2022-11-04T07:09:02.624Z,6.08
2022-11-04T07:11:33.742Z,6.07
2022-11-04T07:14:01.611Z,6.06
2022-11-04T07:16:29.390Z,6.04
2022-11-04T07:18:57.652Z,6.02
2022-11-04T07:21:25.805Z,6.00
2022-11-04T07:23:53.848Z,6.03
2022-11-04T07:26:21.951Z,6.03
2022-11-04T07:28:49.845Z,6.03
2022-11-04T07:31:18.142Z,6.01
2022-11-04T07:33:50.169Z,6.00
2022-11-04T07:36:19.277Z,6.00
2022-11-04T07:38:47.569Z,5.99
2022-11-04T07:41:16.601Z,6.00
2022-11-04T07:43:49.897Z,6.02
2022-11-04T07:46:19.488Z,6.05
2022-11-04T07:48:47.972Z,6.06
2022-11-04T07:51:20.781Z,6.06
2022-11-04T07:53:48.587Z,6.08
2022-11-04T07:56:17.291Z,6.07
2022-11-04T07:58:45.723Z,6.10
2022-11-04T08:01:18.151Z,6.11
2022-11-04T08:03:46.182Z,6.16
2022-11-04T08:06:15.371Z,6.19
2022-11-04T08:08:44.131Z,6.22
2022-11-04T08:11:23.359Z,6.26
2022-11-04T08:13:51.514Z,6.30
2022-11-04T08:16:22.634Z,6.33
2022-11-04T08:18:55.290Z,6.38
2022-11-04T08:21:23.018Z,6.42
2022-11-04T08:23:51.624Z,6.46
2022-11-04T08:26:21.445Z,6.50
2022-11-04T08:28:51.260Z,6.55
2022-11-04T08:31:26.887Z,6.63
2022-11-04T08:33:56.353Z,6.68
2022-11-04T08:36:31.836Z,6.72
2022-11-04T08:39:01.404Z,6.74
2022-11-04T08:41:32.895Z,6.77
2022-11-04T08:44:03.797Z,6.81
2022-11-04T08:46:38.538Z,6.85
2022-11-04T08:49:09.683Z,6.87
2022-11-04T08:51:43.645Z,6.93
2022-11-04T08:54:11.522Z,6.96
2022-11-04T08:56:40.402Z,7.00
2022-11-04T08:59:08.557Z,7.06
2022-11-04T09:01:37.544Z,7.12
2022-11-04T09:04:06.874Z,7.18
2022-11-04T09:06:38.388Z,7.27
2022-11-04T09:09:08.385Z,7.33
2022-11-04T09:11:40.275Z,7.41
2022-11-04T09:14:08.784Z,7.47
2022-11-04T09:16:38.409Z,7.53
2022-11-04T09:19:07.155Z,7.59
2022-11-04T09:21:35.139Z,7.66
2022-11-04T09:24:02.922Z,7.72
2022-11-04T09:26:31.485Z,7.79
2022-11-04T09:29:00.241Z,7.85
2022-11-04T09:31:30.910Z,7.91
2022-11-04T09:33:58.917Z,7.98
2022-11-04T09:36:26.829Z,8.04
2022-11-04T09:38:55.123Z,8.12
2022-11-04T09:42:12.541Z,8.16
2022-11-04T09:45:19.980Z,8.23
2022-11-04T09:47:44.125Z,8.28
2022-11-04T09:50:24.664Z,8.30
2022-11-04T09:53:34.942Z,8.35
2022-11-04T09:56:21.839Z,8.40
2022-11-04T09:58:51.700Z,8.43
2022-11-04T10:01:23.125Z,8.46
2022-11-04T10:04:09.649Z,8.51
2022-11-04T10:07:06.554Z,8.53
2022-11-04T10:10:20.172Z,8.58
2022-11-04T10:13:15.490Z,8.65
2022-11-04T10:16:34.772Z,8.69
2022-11-04T10:19:17.333Z,8.71
2022-11-04T10:22:01.956Z,8.79
2022-11-04T10:25:05.467Z,8.81
2022-11-04T10:27:41.638Z,8.84
2022-11-04T10:30:18.442Z,8.86
2022-11-04T10:33:09.442Z,8.91
2022-11-04T10:36:15.750Z,8.93
2022-11-04T10:38:52.581Z,8.96
2022-11-04T10:41:21.009Z,8.96
2022-11-04T10:43:52.158Z,8.99
2022-11-04T10:46:38.764Z,9.04
2022-11-04T10:49:50.577Z,9.08
2022-11-04T10:52:29.090Z,9.13
2022-11-04T10:54:57.334Z,9.19
2022-11-04T10:57:26.205Z,9.23
2022-11-04T11:00:06.364Z,9.26
2022-11-04T11:02:47.539Z,9.32
2022-11-04T11:05:25.534Z,9.38
2022-11-04T11:07:59.037Z,9.46
2022-11-04T11:10:32.501Z,9.55
2022-11-04T11:13:02.586Z,9.63
2022-11-04T11:15:38.035Z,9.67
2022-11-04T11:18:22.423Z,9.73
2022-11-04T11:21:06.279Z,9.79
2022-11-04T11:23:54.529Z,9.91
2022-11-04T11:26:31.692Z,9.99
2022-11-04T11:29:02.414Z,10.04
2022-11-04T11:31:39.330Z,10.10
2022-11-04T11:34:31.302Z,10.17
2022-11-04T11:37:03.844Z,10.23
2022-11-04T11:39:35.093Z,10.25
2022-11-04T11:42:16.209Z,10.29
2022-11-04T11:44:53.061Z,10.36
2022-11-04T11:47:25.382Z,10.39
2022-11-04T11:50:24.474Z,10.42
2022-11-04T11:52:55.347Z,10.47
2022-11-04T11:55:36.984Z,10.48
2022-11-04T12:01:28.692Z,10.56
2022-11-04T12:10:49.677Z,10.65
2022-11-04T12:13:46.213Z,10.69
2022-11-04T12:16:43.725Z,10.73
2022-11-04T12:19:31.530Z,10.82
2022-11-04T12:22:22.062Z,10.87
2022-11-04T12:25:11.307Z,10.93
2022-11-04T12:27:57.171Z,11.02
2022-11-04T12:30:32.544Z,11.14
2022-11-04T12:33:29.405Z,11.21
2022-11-04T12:36:12.237Z,11.29
2022-11-04T12:39:11.566Z,11.35
2022-11-04T12:45:21.256Z,11.32
2022-11-04T12:47:49.351Z,11.37
2022-11-04T12:50:35.214Z,11.37
2022-11-04T12:53:25.188Z,11.38
2022-11-04T12:56:11.071Z,11.35
2022-11-04T12:59:02.952Z,11.39
2022-11-04T13:01:47.037Z,11.48
2022-11-04T13:04:28.763Z,11.52
2022-11-04T13:07:09.861Z,11.54
2022-11-04T13:09:51.266Z,11.52
2022-11-04T13:12:25.489Z,11.51
2022-11-04T13:15:24.599Z,11.54
2022-11-04T13:18:03.758Z,11.61
2022-11-04T13:20:47.709Z,11.72
2022-11-04T13:23:28.081Z,11.80
2022-11-04T13:25:58.883Z,11.81
2022-11-04T13:28:26.796Z,11.79
2022-11-04T13:31:15.790Z,11.72
2022-11-04T13:34:02.140Z,11.62
2022-11-04T13:37:02.683Z,11.58
2022-11-04T13:39:47.365Z,11.54
2022-11-04T13:43:17.623Z,11.48
2022-11-04T13:45:55.873Z,11.39
2022-11-04T13:48:29.282Z,11.39
2022-11-04T13:51:14.426Z,11.40
2022-11-04T13:53:51.347Z,11.47
2022-11-04T13:56:33.846Z,11.52
2022-11-04T13:59:17.449Z,11.56
2022-11-04T14:01:45.923Z,11.58
2022-11-04T14:04:14.224Z,11.57
2022-11-04T14:07:03.711Z,11.59
2022-11-04T14:09:50.833Z,11.63
2022-11-04T14:12:39.016Z,11.64
2022-11-04T14:15:16.904Z,11.69
2022-11-04T14:17:44.594Z,11.78
2022-11-04T14:20:30.337Z,11.83
2022-11-04T14:23:03.864Z,11.89
2022-11-04T14:25:33.544Z,11.92
2022-11-04T14:28:10.104Z,11.97
2022-11-04T14:31:01.827Z,12.03
2022-11-04T14:33:58.144Z,12.04
2022-11-04T14:36:41.420Z,12.02
2022-11-04T14:39:12.090Z,12.00
2022-11-04T14:41:39.727Z,11.97
2022-11-04T14:44:17.758Z,12.00
2022-11-04T14:46:54.983Z,12.02
2022-11-04T14:49:47.499Z,12.03
2022-11-04T14:52:32.773Z,12.05
2022-11-04T14:55:13.021Z,12.05
2022-11-04T14:57:50.488Z,12.02
2022-11-04T15:00:23.054Z,11.96
2022-11-04T15:04:10.011Z,11.87
2022-11-04T15:06:53.559Z,11.76
2022-11-04T15:09:35.146Z,11.72
2022-11-04T15:12:33.364Z,11.69
2022-11-04T15:15:01.315Z,11.72
2022-11-04T15:17:33.405Z,11.73
2022-11-04T15:20:04.673Z,11.77
2022-11-04T15:22:32.484Z,11.79
2022-11-04T15:25:05.911Z,11.77
2022-11-04T15:27:34.679Z,11.75
2022-11-04T15:30:06.078Z,11.74
2022-11-04T15:32:33.914Z,11.73
2022-11-04T15:35:02.464Z,11.74
2022-11-04T15:37:31.334Z,11.75
2022-11-04T15:39:59.910Z,11.73
2022-11-04T15:42:37.356Z,11.66
2022-11-04T15:45:28.477Z,11.58
2022-11-04T15:48:31.041Z,11.53
2022-11-04T15:51:24.876Z,11.49
2022-11-04T15:53:54.787Z,11.45
2022-11-04T15:56:29.353Z,11.47
2022-11-04T15:58:59.209Z,11.48
2022-11-04T16:01:29.282Z,11.48
2022-11-04T16:04:00.804Z,11.43
2022-11-04T16:06:40.871Z,11.40
2022-11-04T16:09:28.078Z,11.36
2022-11-04T16:12:17.398Z,11.33
2022-11-04T16:14:55.639Z,11.27
2022-11-04T16:17:24.897Z,11.30
2022-11-04T16:20:01.618Z,11.26
2022-11-04T16:22:39.511Z,11.25
2022-11-04T16:25:19.784Z,11.17
2022-11-04T16:27:48.175Z,11.04
2022-11-04T16:30:17.938Z,10.93
2022-11-04T16:32:50.636Z,10.85
2022-11-04T16:35:23.936Z,10.84
2022-11-04T16:37:54.124Z,10.73
2022-11-04T16:40:25.183Z,10.70
2022-11-04T16:42:53.961Z,10.65
2022-11-04T16:45:30.703Z,10.59
2022-11-04T16:47:58.998Z,10.50
2022-11-04T16:50:28.594Z,10.43
2022-11-04T16:52:56.666Z,10.33
2022-11-04T16:55:25.587Z,10.24
2022-11-04T16:58:04.666Z,10.15
2022-11-04T17:00:33.464Z,10.12
2022-11-04T17:03:12.581Z,10.03
2022-11-04T17:05:40.379Z,9.92
2022-11-04T17:08:10.262Z,9.91
2022-11-04T17:10:38.189Z,9.81
2022-11-04T17:13:06.066Z,9.73
2022-11-04T17:15:33.896Z,9.64
2022-11-04T17:18:01.711Z,9.52
2022-11-04T17:20:31.813Z,9.46
2022-11-04T17:23:00.243Z,9.47
2022-11-04T17:25:30.121Z,9.44
2022-11-04T17:27:58.403Z,9.33
2022-11-04T17:30:26.577Z,9.23
2022-11-04T17:32:54.450Z,9.13
2022-11-04T17:35:22.312Z,9.08
2022-11-04T17:37:54.826Z,9.05
2022-11-04T17:40:24.129Z,9.02
2022-11-04T17:43:12.616Z,8.96
2022-11-04T17:45:43.635Z,8.95
2022-11-04T17:48:14.095Z,8.95
2022-11-04T17:50:42.383Z,8.88
2022-11-04T17:53:10.508Z,8.77
2022-11-04T17:55:40.478Z,8.72
2022-11-04T17:58:08.875Z,8.63
2022-11-04T18:00:36.716Z,8.57
2022-11-04T18:03:06.802Z,8.56
2022-11-04T18:05:34.898Z,8.54
2022-11-04T18:08:02.674Z,8.50
2022-11-04T18:10:30.430Z,8.43
2022-11-04T18:12:58.202Z,8.37
2022-11-04T18:15:26.057Z,8.33
2022-11-04T18:17:53.895Z,8.32
2022-11-04T18:20:21.818Z,8.26
2022-11-04T18:22:50.101Z,8.21
2022-11-04T18:25:18.524Z,8.25
2022-11-04T18:27:48.971Z,8.24
2022-11-04T18:30:16.910Z,8.14
2022-11-04T18:32:44.652Z,8.03
2022-11-04T18:35:12.418Z,7.96
2022-11-04T18:37:46.737Z,7.91
2022-11-04T18:40:16.294Z,7.87
2022-11-04T18:42:44.614Z,7.86
2022-11-04T18:45:12.521Z,7.86
2022-11-04T18:47:40.305Z,7.86
2022-11-04T18:50:08.621Z,7.81
2022-11-04T18:52:36.939Z,7.75
2022-11-04T18:55:05.509Z,7.74
2022-11-04T18:57:33.421Z,7.69
2022-11-04T19:00:01.284Z,7.62
2022-11-04T19:02:29.433Z,7.61
2022-11-04T19:04:57.329Z,7.53
2022-11-04T19:07:25.326Z,7.53
2022-11-04T19:09:55.057Z,7.50
2022-11-04T19:12:41.459Z,7.45
2022-11-04T19:15:10.020Z,7.39
2022-11-04T19:17:38.162Z,7.36
2022-11-04T19:20:12.167Z,7.32
2022-11-04T19:22:41.091Z,7.34
2022-11-04T19:25:10.830Z,7.31
2022-11-04T19:27:38.843Z,7.29
2022-11-04T19:30:08.311Z,7.30
2022-11-04T19:32:36.058Z,7.37
2022-11-04T19:35:04.145Z,7.39
2022-11-04T19:37:33.387Z,7.38
2022-11-04T19:40:01.367Z,7.39
2022-11-04T19:42:49.433Z,7.37
2022-11-04T19:45:18.172Z,7.28
2022-11-04T19:47:45.963Z,7.26
2022-11-04T19:50:14.020Z,7.26
2022-11-04T19:52:42.841Z,7.22
2022-11-04T19:55:11.508Z,7.13
2022-11-04T19:57:39.436Z,7.11
2022-11-04T20:00:08.337Z,7.08
2022-11-04T20:02:43.183Z,7.07
2022-11-04T20:05:11.099Z,7.05
2022-11-04T20:07:39.426Z,6.97
2022-11-04T20:10:08.379Z,6.85
2022-11-04T20:12:55.439Z,6.82
2022-11-04T20:15:26.051Z,6.77
2022-11-04T20:17:53.800Z,6.69
2022-11-04T20:20:21.698Z,6.57
2022-11-04T20:22:49.484Z,6.43
2022-11-04T20:25:17.236Z,6.36
2022-11-04T20:27:45.105Z,6.26
2022-11-04T20:30:13.576Z,6.27
2022-11-04T20:32:41.548Z,6.29
2022-11-04T20:35:09.487Z,6.29
2022-11-04T20:37:37.326Z,6.25
2022-11-04T20:40:07.352Z,6.16
2022-11-04T20:42:35.216Z,6.12
2022-11-04T20:45:03.202Z,6.13
2022-11-04T20:47:30.988Z,6.22
2022-11-04T20:49:58.772Z,6.13
2022-11-04T20:52:26.551Z,5.98
2022-11-04T20:54:54.389Z,5.84
2022-11-04T20:57:22.752Z,5.74
2022-11-04T20:59:50.520Z,5.69
2022-11-04T21:02:18.431Z,5.72
2022-11-04T21:04:46.268Z,5.64
2022-11-04T21:07:14.140Z,5.51
2022-11-04T21:09:41.936Z,5.45
2022-11-04T21:12:10.902Z,5.45
2022-11-04T21:14:38.626Z,5.49
2022-11-04T21:17:06.582Z,5.43
2022-11-04T21:19:34.372Z,5.41
2022-11-04T21:22:02.266Z,5.42
2022-11-04T21:24:32.744Z,5.42
2022-11-04T21:27:04.064Z,5.45
2022-11-04T21:29:31.857Z,5.46
2022-11-04T21:31:59.675Z,5.46
2022-11-04T21:34:27.690Z,5.38
2022-11-04T21:36:55.722Z,5.28
2022-11-04T21:39:23.578Z,5.21
2022-11-04T21:41:51.344Z,5.15
2022-11-04T21:44:19.226Z,5.15
2022-11-04T21:46:50.308Z,5.14
2022-11-04T21:49:18.297Z,5.04
2022-11-04T21:51:46.129Z,4.98
2022-11-04T21:54:13.839Z,4.94
2022-11-04T21:56:41.726Z,4.95
2022-11-04T21:59:15.505Z,5.02
2022-11-04T22:01:46.161Z,5.08
2022-11-04T22:04:14.196Z,5.13
2022-11-04T22:06:42.022Z,5.14
2022-11-04T22:09:09.862Z,5.15
2022-11-04T22:11:39.465Z,5.13
2022-11-04T22:14:08.617Z,5.03
2022-11-04T22:16:39.330Z,4.93
2022-11-04T22:19:10.413Z,4.93
2022-11-04T22:21:41.188Z,4.99
2022-11-04T22:24:15.903Z,4.97
2022-11-04T22:26:44.366Z,4.89
2022-11-04T22:29:12.346Z,4.81
2022-11-04T22:31:43.170Z,4.76
2022-11-04T22:34:11.486Z,4.76
2022-11-04T22:36:39.815Z,4.78
2022-11-04T22:39:15.006Z,4.79
2022-11-04T22:41:46.248Z,4.74
2022-11-04T22:44:14.954Z,4.75
2022-11-04T22:46:42.817Z,4.82
2022-11-04T22:49:10.554Z,4.91
2022-11-04T22:51:38.473Z,4.89
2022-11-04T22:54:08.552Z,4.94
2022-11-04T22:56:37.202Z,4.92
2022-11-04T22:59:05.281Z,4.86
2022-11-04T23:01:33.992Z,4.79
2022-11-04T23:04:02.665Z,4.85
2022-11-04T23:06:31.364Z,4.88
2022-11-04T23:09:00.711Z,4.81
2022-11-04T23:11:49.932Z,4.75
2022-11-04T23:14:40.207Z,4.71
2022-11-04T23:17:37.338Z,4.66
2022-11-04T23:20:13.385Z,4.72
2022-11-04T23:23:00.738Z,4.71
2022-11-04T23:25:28.812Z,4.77
2022-11-04T23:28:15.067Z,4.78
2022-11-04T23:30:46.815Z,4.74
2022-11-04T23:33:15.989Z,4.66
2022-11-04T23:36:07.770Z,4.62
2022-11-04T23:38:35.745Z,4.65
2022-11-04T23:41:25.440Z,4.71
2022-11-04T23:43:53.378Z,4.72
2022-11-04T23:46:43.326Z,4.64
2022-11-04T23:49:30.707Z,4.61
2022-11-04T23:52:17.104Z,4.62
2022-11-04T23:55:03.341Z,4.75
2022-11-04T23:57:49.781Z,4.74
